sensor_id;sensor_type;location;lat;lon;timestamp;P1;durP1;ratioP1;P2;durP2;ratioP2
31818;SDS011;18384;48.860;9.188;2023-04-09T00:02:25;18.20;;;10.95;;
31818;SDS011;18384;48.860;9.188;2023-04-09T00:04:51;18.65;;;11.88;;
31818;SDS011;18384;48.860;9.188;2023-04-09T00:07:18;18.80;;;11.77;;
31818;SDS011;18384;48.860;9.188;2023-04-09T00:09:44;21.83;;;12.35;;
31818;SDS011;18384;48.860;9.188;2023-04-09T00:12:10;21.95;;;13.32;;
31818;SDS011;18384;48.860;9.188;2023-04-09T00:14:36;18.45;;;12.48;;
31818;SDS011;18384;48.860;9.188;2023-04-09T00:17:02;16.65;;;11.25;;
31818;SDS011;18384;48.860;9.188;2023-04-09T00:19:28;19.75;;;12.57;;
31818;SDS011;18384;48.860;9.188;2023-04-09T00:21:54;22.10;;;12.55;;
31818;SDS011;18384;48.860;9.188;2023-04-09T00:24:20;20.92;;;12.05;;
31818;SDS011;18384;48.860;9.188;2023-04-09T00:26:46;17.92;;;11.43;;
31818;SDS011;18384;48.860;9.188;2023-04-09T00:29:13;21.65;;;11.82;;
31818;SDS011;18384;48.860;9.188;2023-04-09T00:31:39;23.75;;;11.45;;
31818;SDS011;18384;48.860;9.188;2023-04-09T00:34:05;19.45;;;11.57;;
31818;SDS011;18384;48.860;9.188;2023-04-09T00:36:31;19.33;;;12.65;;
31818;SDS011;18384;48.860;9.188;2023-04-09T00:38:57;17.62;;;11.73;;
31818;SDS011;18384;48.860;9.188;2023-04-09T00:41:24;20.85;;;12.13;;
31818;SDS011;18384;48.860;9.188;2023-04-09T00:43:50;24.45;;;12.30;;
31818;SDS011;18384;48.860;9.188;2023-04-09T00:46:16;17.35;;;11.55;;
31818;SDS011;18384;48.860;9.188;2023-04-09T00:48:42;19.80;;;12.45;;
31818;SDS011;18384;48.860;9.188;2023-04-09T00:51:08;18.05;;;12.02;;
31818;SDS011;18384;48.860;9.188;2023-04-09T00:53:34;18.00;;;12.43;;
31818;SDS011;18384;48.860;9.188;2023-04-09T00:56:01;16.83;;;11.82;;
31818;SDS011;18384;48.860;9.188;2023-04-09T00:58:28;18.10;;;11.50;;
31818;SDS011;18384;48.860;9.188;2023-04-09T01:00:54;18.92;;;10.95;;
31818;SDS011;18384;48.860;9.188;2023-04-09T01:03:20;15.50;;;11.18;;
31818;SDS011;18384;48.860;9.188;2023-04-09T01:06:31;20.80;;;12.40;;
31818;SDS011;18384;48.860;9.188;2023-04-09T01:09:32;18.60;;;12.70;;
31818;SDS011;18384;48.860;9.188;2023-04-09T01:12:30;21.23;;;12.02;;
31818;SDS011;18384;48.860;9.188;2023-04-09T01:15:07;16.23;;;11.12;;
31818;SDS011;18384;48.860;9.188;2023-04-09T01:17:51;20.55;;;12.25;;
31818;SDS011;18384;48.860;9.188;2023-04-09T01:20:33;17.33;;;10.70;;
31818;SDS011;18384;48.860;9.188;2023-04-09T01:29:15;15.32;;;10.27;;
31818;SDS011;18384;48.860;9.188;2023-04-09T01:31:44;19.20;;;11.75;;
31818;SDS011;18384;48.860;9.188;2023-04-09T01:34:12;17.48;;;11.57;;
31818;SDS011;18384;48.860;9.188;2023-04-09T01:36:39;17.02;;;10.98;;
31818;SDS011;18384;48.860;9.188;2023-04-09T01:39:07;15.70;;;11.18;;
31818;SDS011;18384;48.860;9.188;2023-04-09T01:44:00;15.45;;;10.75;;
31818;SDS011;18384;48.860;9.188;2023-04-09T01:46:28;17.08;;;11.02;;
31818;SDS011;18384;48.860;9.188;2023-04-09T01:48:55;19.62;;;12.13;;
31818;SDS011;18384;48.860;9.188;2023-04-09T01:51:21;15.20;;;10.30;;
31818;SDS011;18384;48.860;9.188;2023-04-09T01:53:48;15.60;;;11.00;;
31818;SDS011;18384;48.860;9.188;2023-04-09T01:56:14;18.30;;;11.95;;
31818;SDS011;18384;48.860;9.188;2023-04-09T01:58:40;18.48;;;11.90;;
31818;SDS011;18384;48.860;9.188;2023-04-09T02:01:08;15.10;;;10.75;;
31818;SDS011;18384;48.860;9.188;2023-04-09T02:03:40;15.98;;;11.65;;
31818;SDS011;18384;48.860;9.188;2023-04-09T02:06:16;20.58;;;11.48;;
31818;SDS011;18384;48.860;9.188;2023-04-09T02:11:32;17.55;;;11.32;;
31818;SDS011;18384;48.860;9.188;2023-04-09T02:14:02;18.55;;;12.20;;
31818;SDS011;18384;48.860;9.188;2023-04-09T02:16:30;15.98;;;11.07;;
31818;SDS011;18384;48.860;9.188;2023-04-09T02:18:57;21.75;;;11.50;;
31818;SDS011;18384;48.860;9.188;2023-04-09T02:21:25;17.15;;;11.60;;
31818;SDS011;18384;48.860;9.188;2023-04-09T02:23:53;16.40;;;11.25;;
31818;SDS011;18384;48.860;9.188;2023-04-09T02:26:20;17.70;;;11.40;;
31818;SDS011;18384;48.860;9.188;2023-04-09T02:28:46;17.15;;;12.13;;
31818;SDS011;18384;48.860;9.188;2023-04-09T02:31:12;16.73;;;11.75;;
31818;SDS011;18384;48.860;9.188;2023-04-09T02:33:39;18.25;;;12.00;;
31818;SDS011;18384;48.860;9.188;2023-04-09T02:38:31;19.70;;;11.82;;
31818;SDS011;18384;48.860;9.188;2023-04-09T02:40:57;15.25;;;11.10;;
31818;SDS011;18384;48.860;9.188;2023-04-09T02:43:23;16.02;;;11.75;;
31818;SDS011;18384;48.860;9.188;2023-04-09T02:45:49;19.98;;;11.80;;
31818;SDS011;18384;48.860;9.188;2023-04-09T02:48:15;17.42;;;11.43;;
31818;SDS011;18384;48.860;9.188;2023-04-09T02:50:41;19.17;;;11.38;;
31818;SDS011;18384;48.860;9.188;2023-04-09T02:53:08;18.62;;;12.43;;
31818;SDS011;18384;48.860;9.188;2023-04-09T02:55:34;22.90;;;11.75;;
31818;SDS011;18384;48.860;9.188;2023-04-09T02:58:00;17.10;;;11.27;;
31818;SDS011;18384;48.860;9.188;2023-04-09T03:00:26;17.12;;;11.40;;
31818;SDS011;18384;48.860;9.188;2023-04-09T03:02:52;17.65;;;11.38;;
31818;SDS011;18384;48.860;9.188;2023-04-09T03:05:18;19.45;;;11.85;;
31818;SDS011;18384;48.860;9.188;2023-04-09T03:07:45;16.65;;;11.45;;
31818;SDS011;18384;48.860;9.188;2023-04-09T03:12:37;16.77;;;10.93;;
31818;SDS011;18384;48.860;9.188;2023-04-09T03:15:03;20.00;;;11.68;;
31818;SDS011;18384;48.860;9.188;2023-04-09T03:17:30;17.58;;;10.85;;
31818;SDS011;18384;48.860;9.188;2023-04-09T03:19:57;17.37;;;10.85;;
31818;SDS011;18384;48.860;9.188;2023-04-09T03:24:49;20.37;;;11.05;;
31818;SDS011;18384;48.860;9.188;2023-04-09T03:27:15;16.33;;;10.50;;
31818;SDS011;18384;48.860;9.188;2023-04-09T03:29:41;15.27;;;10.77;;
31818;SDS011;18384;48.860;9.188;2023-04-09T03:32:07;17.33;;;11.45;;
31818;SDS011;18384;48.860;9.188;2023-04-09T03:34:33;16.15;;;10.35;;
31818;SDS011;18384;48.860;9.188;2023-04-09T03:36:59;14.48;;;10.40;;
31818;SDS011;18384;48.860;9.188;2023-04-09T03:39:26;16.50;;;10.10;;
31818;SDS011;18384;48.860;9.188;2023-04-09T03:41:55;13.30;;;9.40;;
31818;SDS011;18384;48.860;9.188;2023-04-09T03:44:23;15.65;;;10.07;;
31818;SDS011;18384;48.860;9.188;2023-04-09T03:46:49;15.18;;;9.98;;
31818;SDS011;18384;48.860;9.188;2023-04-09T03:49:15;15.73;;;9.98;;
31818;SDS011;18384;48.860;9.188;2023-04-09T03:51:41;16.87;;;11.00;;
31818;SDS011;18384;48.860;9.188;2023-04-09T03:54:08;14.65;;;9.65;;
31818;SDS011;18384;48.860;9.188;2023-04-09T03:56:34;16.20;;;10.85;;
31818;SDS011;18384;48.860;9.188;2023-04-09T03:59:00;14.43;;;10.13;;
31818;SDS011;18384;48.860;9.188;2023-04-09T04:01:27;13.68;;;9.65;;
31818;SDS011;18384;48.860;9.188;2023-04-09T04:03:53;16.33;;;9.70;;
31818;SDS011;18384;48.860;9.188;2023-04-09T04:06:19;17.27;;;9.50;;
31818;SDS011;18384;48.860;9.188;2023-04-09T04:08:45;16.35;;;9.93;;
31818;SDS011;18384;48.860;9.188;2023-04-09T04:11:11;14.98;;;10.23;;
31818;SDS011;18384;48.860;9.188;2023-04-09T04:13:37;15.48;;;9.80;;
31818;SDS011;18384;48.860;9.188;2023-04-09T04:16:09;14.60;;;10.40;;
31818;SDS011;18384;48.860;9.188;2023-04-09T04:18:35;17.73;;;10.32;;
31818;SDS011;18384;48.860;9.188;2023-04-09T04:21:02;14.02;;;9.75;;
31818;SDS011;18384;48.860;9.188;2023-04-09T04:25:54;14.07;;;9.57;;
31818;SDS011;18384;48.860;9.188;2023-04-09T04:28:22;18.08;;;10.68;;
31818;SDS011;18384;48.860;9.188;2023-04-09T04:30:48;17.05;;;10.13;;
31818;SDS011;18384;48.860;9.188;2023-04-09T04:33:14;18.87;;;10.02;;
31818;SDS011;18384;48.860;9.188;2023-04-09T04:35:40;15.32;;;10.52;;
31818;SDS011;18384;48.860;9.188;2023-04-09T04:38:06;16.65;;;9.88;;
31818;SDS011;18384;48.860;9.188;2023-04-09T04:40:32;17.23;;;10.32;;
31818;SDS011;18384;48.860;9.188;2023-04-09T04:42:59;16.58;;;10.05;;
31818;SDS011;18384;48.860;9.188;2023-04-09T04:45:25;13.75;;;9.75;;
31818;SDS011;18384;48.860;9.188;2023-04-09T04:47:51;12.95;;;9.10;;
31818;SDS011;18384;48.860;9.188;2023-04-09T04:50:18;16.40;;;9.63;;
31818;SDS011;18384;48.860;9.188;2023-04-09T04:52:44;16.10;;;9.88;;
31818;SDS011;18384;48.860;9.188;2023-04-09T04:55:10;14.48;;;10.10;;
31818;SDS011;18384;48.860;9.188;2023-04-09T04:57:36;16.27;;;11.15;;
31818;SDS011;18384;48.860;9.188;2023-04-09T05:00:02;16.37;;;10.10;;
31818;SDS011;18384;48.860;9.188;2023-04-09T05:02:29;14.60;;;9.98;;
31818;SDS011;18384;48.860;9.188;2023-04-09T05:04:55;16.15;;;10.07;;
31818;SDS011;18384;48.860;9.188;2023-04-09T05:07:21;19.23;;;9.93;;
31818;SDS011;18384;48.860;9.188;2023-04-09T05:09:47;16.15;;;9.45;;
31818;SDS011;18384;48.860;9.188;2023-04-09T05:12:13;15.52;;;10.90;;
31818;SDS011;18384;48.860;9.188;2023-04-09T05:14:42;15.25;;;9.73;;
31818;SDS011;18384;48.860;9.188;2023-04-09T05:19:34;15.05;;;10.32;;
31818;SDS011;18384;48.860;9.188;2023-04-09T05:22:00;16.65;;;10.23;;
31818;SDS011;18384;48.860;9.188;2023-04-09T05:24:26;17.17;;;11.38;;
31818;SDS011;18384;48.860;9.188;2023-04-09T05:26:52;16.70;;;10.65;;
31818;SDS011;18384;48.860;9.188;2023-04-09T05:29:18;15.00;;;9.77;;
31818;SDS011;18384;48.860;9.188;2023-04-09T05:34:11;16.85;;;10.45;;
31818;SDS011;18384;48.860;9.188;2023-04-09T05:36:37;16.35;;;10.25;;
31818;SDS011;18384;48.860;9.188;2023-04-09T05:39:03;16.80;;;10.05;;
31818;SDS011;18384;48.860;9.188;2023-04-09T05:41:29;16.23;;;9.27;;
31818;SDS011;18384;48.860;9.188;2023-04-09T05:43:56;16.83;;;10.27;;
31818;SDS011;18384;48.860;9.188;2023-04-09T05:46:22;16.27;;;10.40;;
31818;SDS011;18384;48.860;9.188;2023-04-09T05:48:49;14.43;;;10.30;;
31818;SDS011;18384;48.860;9.188;2023-04-09T05:51:15;17.25;;;9.68;;
31818;SDS011;18384;48.860;9.188;2023-04-09T05:53:41;15.35;;;10.25;;
31818;SDS011;18384;48.860;9.188;2023-04-09T05:56:12;17.33;;;10.70;;
31818;SDS011;18384;48.860;9.188;2023-04-09T05:58:39;16.00;;;9.50;;
31818;SDS011;18384;48.860;9.188;2023-04-09T06:01:05;18.98;;;11.60;;
31818;SDS011;18384;48.860;9.188;2023-04-09T06:03:31;16.92;;;10.98;;
31818;SDS011;18384;48.860;9.188;2023-04-09T06:05:57;16.98;;;11.05;;
31818;SDS011;18384;48.860;9.188;2023-04-09T06:08:24;23.17;;;10.65;;
31818;SDS011;18384;48.860;9.188;2023-04-09T06:10:50;14.77;;;10.20;;
31818;SDS011;18384;48.860;9.188;2023-04-09T06:13:16;16.15;;;10.57;;
31818;SDS011;18384;48.860;9.188;2023-04-09T06:15:42;15.23;;;10.50;;
31818;SDS011;18384;48.860;9.188;2023-04-09T06:18:08;17.62;;;10.82;;
31818;SDS011;18384;48.860;9.188;2023-04-09T06:20:34;16.90;;;10.45;;
31818;SDS011;18384;48.860;9.188;2023-04-09T06:23:00;21.00;;;11.68;;
31818;SDS011;18384;48.860;9.188;2023-04-09T06:25:26;16.33;;;10.70;;
31818;SDS011;18384;48.860;9.188;2023-04-09T06:27:52;17.15;;;10.43;;
31818;SDS011;18384;48.860;9.188;2023-04-09T06:30:19;15.75;;;10.00;;
31818;SDS011;18384;48.860;9.188;2023-04-09T06:32:45;14.75;;;10.13;;
31818;SDS011;18384;48.860;9.188;2023-04-09T06:35:12;17.80;;;10.52;;
31818;SDS011;18384;48.860;9.188;2023-04-09T06:37:41;13.93;;;9.98;;
31818;SDS011;18384;48.860;9.188;2023-04-09T06:40:07;15.43;;;10.20;;
31818;SDS011;18384;48.860;9.188;2023-04-09T06:42:34;13.93;;;9.88;;
31818;SDS011;18384;48.860;9.188;2023-04-09T06:45:00;13.60;;;9.45;;
31818;SDS011;18384;48.860;9.188;2023-04-09T06:47:26;15.98;;;9.93;;
31818;SDS011;18384;48.860;9.188;2023-04-09T06:49:52;14.48;;;9.60;;
31818;SDS011;18384;48.860;9.188;2023-04-09T06:52:18;15.82;;;10.18;;
31818;SDS011;18384;48.860;9.188;2023-04-09T06:54:45;16.25;;;10.63;;
31818;SDS011;18384;48.860;9.188;2023-04-09T06:59:37;17.20;;;9.55;;
31818;SDS011;18384;48.860;9.188;2023-04-09T07:02:03;15.00;;;10.02;;
31818;SDS011;18384;48.860;9.188;2023-04-09T07:04:29;15.00;;;8.55;;
31818;SDS011;18384;48.860;9.188;2023-04-09T07:06:56;14.30;;;10.10;;
31818;SDS011;18384;48.860;9.188;2023-04-09T07:09:23;14.05;;;9.32;;
31818;SDS011;18384;48.860;9.188;2023-04-09T07:11:49;15.82;;;10.52;;
31818;SDS011;18384;48.860;9.188;2023-04-09T07:14:15;14.63;;;9.43;;
31818;SDS011;18384;48.860;9.188;2023-04-09T07:16:41;13.52;;;9.07;;
31818;SDS011;18384;48.860;9.188;2023-04-09T07:19:10;12.80;;;9.18;;
31818;SDS011;18384;48.860;9.188;2023-04-09T07:21:36;11.80;;;8.48;;
31818;SDS011;18384;48.860;9.188;2023-04-09T07:24:03;13.35;;;9.18;;
31818;SDS011;18384;48.860;9.188;2023-04-09T07:26:29;13.98;;;9.35;;
31818;SDS011;18384;48.860;9.188;2023-04-09T07:28:55;13.40;;;9.05;;
31818;SDS011;18384;48.860;9.188;2023-04-09T07:31:22;13.73;;;9.35;;
31818;SDS011;18384;48.860;9.188;2023-04-09T07:33:48;15.82;;;9.88;;
31818;SDS011;18384;48.860;9.188;2023-04-09T07:36:14;20.42;;;11.48;;
31818;SDS011;18384;48.860;9.188;2023-04-09T07:38:40;17.50;;;10.98;;
31818;SDS011;18384;48.860;9.188;2023-04-09T07:41:09;13.90;;;9.27;;
31818;SDS011;18384;48.860;9.188;2023-04-09T07:43:35;15.82;;;9.43;;
31818;SDS011;18384;48.860;9.188;2023-04-09T07:46:01;14.13;;;8.13;;
31818;SDS011;18384;48.860;9.188;2023-04-09T07:48:27;14.43;;;9.20;;
31818;SDS011;18384;48.860;9.188;2023-04-09T07:50:54;14.15;;;8.55;;
31818;SDS011;18384;48.860;9.188;2023-04-09T07:53:20;11.35;;;8.45;;
31818;SDS011;18384;48.860;9.188;2023-04-09T07:55:46;11.85;;;7.80;;
31818;SDS011;18384;48.860;9.188;2023-04-09T07:58:14;16.42;;;8.93;;
31818;SDS011;18384;48.860;9.188;2023-04-09T08:00:40;11.60;;;8.50;;
31818;SDS011;18384;48.860;9.188;2023-04-09T08:03:06;13.65;;;9.07;;
31818;SDS011;18384;48.860;9.188;2023-04-09T08:05:33;13.95;;;8.70;;
31818;SDS011;18384;48.860;9.188;2023-04-09T08:08:00;13.52;;;8.63;;
31818;SDS011;18384;48.860;9.188;2023-04-09T08:10:26;12.77;;;8.18;;
31818;SDS011;18384;48.860;9.188;2023-04-09T08:12:52;12.02;;;8.27;;
31818;SDS011;18384;48.860;9.188;2023-04-09T08:15:18;14.27;;;7.78;;
31818;SDS011;18384;48.860;9.188;2023-04-09T08:20:11;11.12;;;7.32;;
31818;SDS011;18384;48.860;9.188;2023-04-09T08:25:05;11.93;;;8.10;;
31818;SDS011;18384;48.860;9.188;2023-04-09T08:27:32;10.93;;;7.05;;
31818;SDS011;18384;48.860;9.188;2023-04-09T08:29:58;9.70;;;6.72;;
31818;SDS011;18384;48.860;9.188;2023-04-09T08:32:24;10.43;;;6.62;;
31818;SDS011;18384;48.860;9.188;2023-04-09T08:37:17;17.33;;;7.10;;
31818;SDS011;18384;48.860;9.188;2023-04-09T08:39:43;9.30;;;6.40;;
31818;SDS011;18384;48.860;9.188;2023-04-09T08:42:09;10.43;;;6.68;;
31818;SDS011;18384;48.860;9.188;2023-04-09T08:44:36;13.43;;;7.43;;
31818;SDS011;18384;48.860;9.188;2023-04-09T08:47:06;9.90;;;6.82;;
31818;SDS011;18384;48.860;9.188;2023-04-09T08:49:37;11.40;;;7.25;;
31818;SDS011;18384;48.860;9.188;2023-04-09T08:52:05;10.77;;;6.85;;
31818;SDS011;18384;48.860;9.188;2023-04-09T08:54:31;9.85;;;6.85;;
31818;SDS011;18384;48.860;9.188;2023-04-09T08:56:57;10.00;;;7.10;;
31818;SDS011;18384;48.860;9.188;2023-04-09T08:59:23;8.32;;;6.15;;
31818;SDS011;18384;48.860;9.188;2023-04-09T09:04:47;9.85;;;6.35;;
31818;SDS011;18384;48.860;9.188;2023-04-09T09:07:14;10.02;;;6.93;;
31818;SDS011;18384;48.860;9.188;2023-04-09T09:09:51;10.23;;;6.47;;
31818;SDS011;18384;48.860;9.188;2023-04-09T09:12:38;10.60;;;6.72;;
31818;SDS011;18384;48.860;9.188;2023-04-09T09:15:25;8.48;;;5.57;;
31818;SDS011;18384;48.860;9.188;2023-04-09T09:17:57;9.00;;;5.78;;
31818;SDS011;18384;48.860;9.188;2023-04-09T09:20:24;7.93;;;5.70;;
31818;SDS011;18384;48.860;9.188;2023-04-09T09:22:52;6.72;;;4.43;;
31818;SDS011;18384;48.860;9.188;2023-04-09T09:25:19;11.32;;;6.55;;
31818;SDS011;18384;48.860;9.188;2023-04-09T09:27:50;8.02;;;5.05;;
31818;SDS011;18384;48.860;9.188;2023-04-09T09:30:23;8.38;;;5.50;;
31818;SDS011;18384;48.860;9.188;2023-04-09T09:33:12;8.13;;;5.07;;
31818;SDS011;18384;48.860;9.188;2023-04-09T09:35:48;8.23;;;5.25;;
31818;SDS011;18384;48.860;9.188;2023-04-09T09:38:16;6.57;;;4.75;;
31818;SDS011;18384;48.860;9.188;2023-04-09T09:40:43;7.55;;;5.07;;
31818;SDS011;18384;48.860;9.188;2023-04-09T09:43:09;8.30;;;5.18;;
31818;SDS011;18384;48.860;9.188;2023-04-09T09:45:36;7.25;;;5.03;;
31818;SDS011;18384;48.860;9.188;2023-04-09T09:48:04;7.12;;;4.80;;
31818;SDS011;18384;48.860;9.188;2023-04-09T09:53:05;9.05;;;5.00;;
31818;SDS011;18384;48.860;9.188;2023-04-09T09:55:32;7.78;;;4.80;;
31818;SDS011;18384;48.860;9.188;2023-04-09T09:58:16;6.45;;;4.15;;
31818;SDS011;18384;48.860;9.188;2023-04-09T10:00:51;8.45;;;4.57;;
31818;SDS011;18384;48.860;9.188;2023-04-09T10:03:27;5.90;;;4.18;;
31818;SDS011;18384;48.860;9.188;2023-04-09T10:05:56;6.00;;;3.85;;
31818;SDS011;18384;48.860;9.188;2023-04-09T10:08:23;8.45;;;4.32;;
31818;SDS011;18384;48.860;9.188;2023-04-09T10:10:51;7.12;;;4.93;;
31818;SDS011;18384;48.860;9.188;2023-04-09T10:13:22;7.22;;;4.65;;
31818;SDS011;18384;48.860;9.188;2023-04-09T10:15:58;5.25;;;4.00;;
31818;SDS011;18384;48.860;9.188;2023-04-09T10:18:24;6.00;;;4.40;;
31818;SDS011;18384;48.860;9.188;2023-04-09T10:21:26;7.03;;;4.35;;
31818;SDS011;18384;48.860;9.188;2023-04-09T10:24:18;6.45;;;4.25;;
31818;SDS011;18384;48.860;9.188;2023-04-09T10:26:46;7.05;;;5.03;;
31818;SDS011;18384;48.860;9.188;2023-04-09T10:29:13;6.95;;;5.20;;
31818;SDS011;18384;48.860;9.188;2023-04-09T10:31:47;6.15;;;4.80;;
31818;SDS011;18384;48.860;9.188;2023-04-09T10:34:27;4.72;;;3.35;;
31818;SDS011;18384;48.860;9.188;2023-04-09T10:36:57;3.72;;;2.70;;
31818;SDS011;18384;48.860;9.188;2023-04-09T10:39:27;5.40;;;3.53;;
31818;SDS011;18384;48.860;9.188;2023-04-09T10:41:56;4.82;;;3.10;;
31818;SDS011;18384;48.860;9.188;2023-04-09T10:44:25;4.37;;;3.03;;
31818;SDS011;18384;48.860;9.188;2023-04-09T10:46:53;5.68;;;3.67;;
31818;SDS011;18384;48.860;9.188;2023-04-09T10:49:20;5.70;;;3.30;;
31818;SDS011;18384;48.860;9.188;2023-04-09T10:51:51;11.60;;;3.37;;
31818;SDS011;18384;48.860;9.188;2023-04-09T10:54:36;4.87;;;3.03;;
31818;SDS011;18384;48.860;9.188;2023-04-09T10:57:16;5.25;;;3.15;;
31818;SDS011;18384;48.860;9.188;2023-04-09T10:59:50;3.90;;;2.80;;
31818;SDS011;18384;48.860;9.188;2023-04-09T11:06:34;5.53;;;3.83;;
31818;SDS011;18384;48.860;9.188;2023-04-09T11:09:04;6.00;;;4.12;;
31818;SDS011;18384;48.860;9.188;2023-04-09T11:11:30;6.15;;;3.70;;
31818;SDS011;18384;48.860;9.188;2023-04-09T11:13:58;5.57;;;3.45;;
31818;SDS011;18384;48.860;9.188;2023-04-09T11:16:27;5.25;;;3.92;;
31818;SDS011;18384;48.860;9.188;2023-04-09T11:18:55;6.62;;;3.78;;
31818;SDS011;18384;48.860;9.188;2023-04-09T11:21:25;7.65;;;3.85;;
31818;SDS011;18384;48.860;9.188;2023-04-09T11:23:52;6.87;;;3.25;;
31818;SDS011;18384;48.860;9.188;2023-04-09T11:26:22;6.68;;;3.78;;
31818;SDS011;18384;48.860;9.188;2023-04-09T11:29:06;6.35;;;3.75;;
31818;SDS011;18384;48.860;9.188;2023-04-09T11:31:33;5.30;;;3.67;;
31818;SDS011;18384;48.860;9.188;2023-04-09T11:34:00;4.57;;;3.12;;
31818;SDS011;18384;48.860;9.188;2023-04-09T11:36:27;4.87;;;2.90;;
31818;SDS011;18384;48.860;9.188;2023-04-09T11:38:54;4.40;;;2.90;;
31818;SDS011;18384;48.860;9.188;2023-04-09T11:41:36;4.15;;;2.85;;
31818;SDS011;18384;48.860;9.188;2023-04-09T11:44:06;3.87;;;2.78;;
31818;SDS011;18384;48.860;9.188;2023-04-09T11:46:33;5.18;;;3.40;;
31818;SDS011;18384;48.860;9.188;2023-04-09T11:49:00;4.25;;;3.17;;
31818;SDS011;18384;48.860;9.188;2023-04-09T11:51:26;4.15;;;2.90;;
31818;SDS011;18384;48.860;9.188;2023-04-09T11:53:56;4.70;;;2.80;;
31818;SDS011;18384;48.860;9.188;2023-04-09T11:56:29;5.00;;;2.95;;
31818;SDS011;18384;48.860;9.188;2023-04-09T11:58:56;4.10;;;2.97;;
31818;SDS011;18384;48.860;9.188;2023-04-09T12:01:23;5.43;;;3.20;;
31818;SDS011;18384;48.860;9.188;2023-04-09T12:03:55;4.82;;;3.60;;
31818;SDS011;18384;48.860;9.188;2023-04-09T12:06:22;4.62;;;3.47;;
31818;SDS011;18384;48.860;9.188;2023-04-09T12:08:54;5.95;;;3.60;;
31818;SDS011;18384;48.860;9.188;2023-04-09T12:11:30;5.75;;;3.70;;
31818;SDS011;18384;48.860;9.188;2023-04-09T12:14:00;7.32;;;4.15;;
31818;SDS011;18384;48.860;9.188;2023-04-09T12:16:30;5.78;;;3.20;;
31818;SDS011;18384;48.860;9.188;2023-04-09T12:19:04;4.72;;;3.00;;
31818;SDS011;18384;48.860;9.188;2023-04-09T12:21:50;5.15;;;3.17;;
31818;SDS011;18384;48.860;9.188;2023-04-09T12:24:20;4.57;;;3.17;;
31818;SDS011;18384;48.860;9.188;2023-04-09T12:26:49;4.82;;;2.87;;
31818;SDS011;18384;48.860;9.188;2023-04-09T12:29:16;4.00;;;2.53;;
31818;SDS011;18384;48.860;9.188;2023-04-09T12:31:44;4.35;;;2.87;;
31818;SDS011;18384;48.860;9.188;2023-04-09T12:34:10;4.70;;;3.00;;
31818;SDS011;18384;48.860;9.188;2023-04-09T12:36:38;4.03;;;2.50;;
31818;SDS011;18384;48.860;9.188;2023-04-09T12:39:05;4.32;;;2.87;;
31818;SDS011;18384;48.860;9.188;2023-04-09T12:41:33;4.30;;;3.03;;
31818;SDS011;18384;48.860;9.188;2023-04-09T12:46:25;4.37;;;3.03;;
31818;SDS011;18384;48.860;9.188;2023-04-09T12:48:52;9.75;;;2.90;;
31818;SDS011;18384;48.860;9.188;2023-04-09T12:51:18;4.55;;;2.80;;
31818;SDS011;18384;48.860;9.188;2023-04-09T12:56:11;5.20;;;3.12;;
31818;SDS011;18384;48.860;9.188;2023-04-09T13:01:08;4.50;;;3.00;;
31818;SDS011;18384;48.860;9.188;2023-04-09T13:03:34;4.90;;;2.97;;
31818;SDS011;18384;48.860;9.188;2023-04-09T13:06:00;4.78;;;2.95;;
31818;SDS011;18384;48.860;9.188;2023-04-09T13:08:26;4.97;;;3.20;;
31818;SDS011;18384;48.860;9.188;2023-04-09T13:10:52;5.32;;;3.30;;
31818;SDS011;18384;48.860;9.188;2023-04-09T13:13:18;5.10;;;3.30;;
31818;SDS011;18384;48.860;9.188;2023-04-09T13:15:45;4.50;;;2.97;;
31818;SDS011;18384;48.860;9.188;2023-04-09T13:18:11;5.50;;;3.40;;
31818;SDS011;18384;48.860;9.188;2023-04-09T13:23:04;5.30;;;3.15;;
31818;SDS011;18384;48.860;9.188;2023-04-09T13:25:31;4.93;;;3.05;;
31818;SDS011;18384;48.860;9.188;2023-04-09T13:27:57;8.18;;;3.12;;
31818;SDS011;18384;48.860;9.188;2023-04-09T13:30:23;5.35;;;3.22;;
31818;SDS011;18384;48.860;9.188;2023-04-09T13:32:49;6.28;;;3.37;;
31818;SDS011;18384;48.860;9.188;2023-04-09T13:37:43;4.65;;;3.25;;
31818;SDS011;18384;48.860;9.188;2023-04-09T13:40:09;4.68;;;2.78;;
31818;SDS011;18384;48.860;9.188;2023-04-09T13:42:36;4.10;;;2.60;;
31818;SDS011;18384;48.860;9.188;2023-04-09T13:45:02;3.67;;;2.30;;
31818;SDS011;18384;48.860;9.188;2023-04-09T13:47:29;5.28;;;3.12;;
31818;SDS011;18384;48.860;9.188;2023-04-09T13:49:55;4.80;;;3.05;;
31818;SDS011;18384;48.860;9.188;2023-04-09T13:52:21;5.25;;;3.37;;
31818;SDS011;18384;48.860;9.188;2023-04-09T13:54:49;5.68;;;3.55;;
31818;SDS011;18384;48.860;9.188;2023-04-09T13:57:17;5.60;;;3.72;;
31818;SDS011;18384;48.860;9.188;2023-04-09T13:59:44;5.53;;;3.50;;
31818;SDS011;18384;48.860;9.188;2023-04-09T14:02:10;7.00;;;3.47;;
31818;SDS011;18384;48.860;9.188;2023-04-09T14:04:36;4.85;;;3.15;;
31818;SDS011;18384;48.860;9.188;2023-04-09T14:07:02;4.87;;;3.12;;
31818;SDS011;18384;48.860;9.188;2023-04-09T14:09:28;4.40;;;2.92;;
31818;SDS011;18384;48.860;9.188;2023-04-09T14:11:54;4.80;;;2.75;;
31818;SDS011;18384;48.860;9.188;2023-04-09T14:14:21;4.57;;;2.87;;
31818;SDS011;18384;48.860;9.188;2023-04-09T14:16:47;5.25;;;3.42;;
31818;SDS011;18384;48.860;9.188;2023-04-09T14:19:14;5.60;;;3.45;;
31818;SDS011;18384;48.860;9.188;2023-04-09T14:21:41;5.85;;;3.17;;
31818;SDS011;18384;48.860;9.188;2023-04-09T14:24:07;4.70;;;3.03;;
31818;SDS011;18384;48.860;9.188;2023-04-09T14:26:33;5.47;;;3.10;;
31818;SDS011;18384;48.860;9.188;2023-04-09T14:28:59;6.40;;;3.62;;
31818;SDS011;18384;48.860;9.188;2023-04-09T14:31:25;5.37;;;3.22;;
31818;SDS011;18384;48.860;9.188;2023-04-09T14:33:51;5.05;;;3.20;;
31818;SDS011;18384;48.860;9.188;2023-04-09T14:36:17;4.85;;;3.05;;
31818;SDS011;18384;48.860;9.188;2023-04-09T14:38:44;6.35;;;3.28;;
31818;SDS011;18384;48.860;9.188;2023-04-09T14:41:10;5.53;;;3.22;;
31818;SDS011;18384;48.860;9.188;2023-04-09T14:43:36;5.85;;;3.83;;
31818;SDS011;18384;48.860;9.188;2023-04-09T14:46:04;5.12;;;3.28;;
31818;SDS011;18384;48.860;9.188;2023-04-09T14:48:31;5.62;;;3.25;;
31818;SDS011;18384;48.860;9.188;2023-04-09T14:50:57;4.82;;;3.42;;
31818;SDS011;18384;48.860;9.188;2023-04-09T14:53:23;5.78;;;3.58;;
31818;SDS011;18384;48.860;9.188;2023-04-09T14:55:49;5.40;;;3.30;;
31818;SDS011;18384;48.860;9.188;2023-04-09T14:58:15;5.10;;;3.65;;
31818;SDS011;18384;48.860;9.188;2023-04-09T15:00:41;5.25;;;3.50;;
31818;SDS011;18384;48.860;9.188;2023-04-09T15:03:09;5.15;;;3.35;;
31818;SDS011;18384;48.860;9.188;2023-04-09T15:05:35;6.22;;;3.62;;
31818;SDS011;18384;48.860;9.188;2023-04-09T15:08:01;7.03;;;4.28;;
31818;SDS011;18384;48.860;9.188;2023-04-09T15:10:28;6.00;;;4.03;;
31818;SDS011;18384;48.860;9.188;2023-04-09T15:12:54;9.38;;;3.50;;
31818;SDS011;18384;48.860;9.188;2023-04-09T15:15:20;4.95;;;3.22;;
31818;SDS011;18384;48.860;9.188;2023-04-09T15:17:46;5.03;;;3.58;;
31818;SDS011;18384;48.860;9.188;2023-04-09T15:20:12;6.12;;;3.22;;
31818;SDS011;18384;48.860;9.188;2023-04-09T15:22:38;7.05;;;3.80;;
31818;SDS011;18384;48.860;9.188;2023-04-09T15:25:05;6.07;;;3.80;;
31818;SDS011;18384;48.860;9.188;2023-04-09T15:27:31;6.07;;;3.65;;
31818;SDS011;18384;48.860;9.188;2023-04-09T15:30:00;5.45;;;3.62;;
31818;SDS011;18384;48.860;9.188;2023-04-09T15:32:27;5.45;;;3.87;;
31818;SDS011;18384;48.860;9.188;2023-04-09T15:34:55;5.00;;;3.30;;
31818;SDS011;18384;48.860;9.188;2023-04-09T15:39:47;5.00;;;3.37;;
31818;SDS011;18384;48.860;9.188;2023-04-09T15:42:13;5.85;;;3.40;;